Terminal Aerodrome Forecast
Issued by NWS

Home | Current Version | Previous Version | Text Only | Print | Product List | Glossary On
Versions: 1 2 3 4 5 6 7 8 9 10 11 12 13 14
000
FTUS45 KABQ 080536
TAFGUP
TAF
KGUP 080536Z 0806/0906 VRB05KT P6SM SCT120
     FM081930 25013G22KT P6SM SCT090
     FM090200 VRB05KT P6SM SCT110=

USA.gov is the U.S. government's official web portal to all federal, state and local government web resources and services.